createdAt,value
2022-12-22T00:01:19.306Z,46.80
2022-12-22T00:04:06.087Z,45.33
2022-12-22T00:06:52.475Z,44.73
2022-12-22T00:09:38.748Z,45.00
2022-12-22T00:12:24.845Z,45.23
2022-12-22T00:15:11.371Z,46.47
2022-12-22T00:17:57.261Z,45.63
2022-12-22T00:20:43.211Z,44.23
2022-12-22T00:23:30.063Z,43.60
2022-12-22T00:26:17.547Z,43.63
2022-12-22T00:29:05.105Z,41.53
2022-12-22T00:31:51.457Z,40.47
2022-12-22T00:34:40.494Z,41.57
2022-12-22T00:37:31.529Z,42.80
2022-12-22T00:40:21.132Z,42.30
2022-12-22T00:43:07.715Z,42.53
2022-12-22T00:45:54.369Z,42.53
2022-12-22T00:48:44.535Z,42.00
2022-12-22T00:51:31.367Z,42.10
2022-12-22T00:54:17.615Z,43.90
2022-12-22T00:57:03.501Z,45.60
2022-12-22T00:59:49.944Z,43.50
2022-12-22T01:02:36.409Z,43.37
2022-12-22T01:05:22.728Z,46.10
2022-12-22T01:08:08.468Z,43.57
2022-12-22T01:10:54.478Z,43.37
2022-12-22T01:13:40.289Z,42.20
2022-12-22T01:16:30.789Z,43.20
2022-12-22T01:19:16.559Z,42.00
2022-12-22T01:22:02.861Z,42.43
2022-12-22T01:24:49.760Z,42.47
2022-12-22T01:27:36.029Z,39.93
2022-12-22T01:30:22.285Z,39.53
2022-12-22T01:33:08.498Z,39.73
2022-12-22T01:35:54.400Z,39.67
2022-12-22T01:38:40.626Z,38.97
2022-12-22T01:41:33.534Z,39.07
2022-12-22T01:44:19.856Z,37.17
2022-12-22T01:47:06.368Z,36.33
2022-12-22T01:49:56.374Z,34.87
2022-12-22T01:52:48.785Z,36.80
2022-12-22T01:55:37.921Z,32.63
2022-12-22T01:58:30.576Z,37.40
2022-12-22T02:01:16.515Z,35.50
2022-12-22T02:04:02.273Z,35.43
2022-12-22T02:07:00.169Z,34.37
2022-12-22T02:10:07.707Z,32.47
2022-12-22T02:13:26.240Z,36.03
2022-12-22T02:16:42.913Z,36.17
2022-12-22T02:19:53.296Z,34.47
2022-12-22T02:23:01.876Z,33.43
2022-12-22T02:25:58.172Z,35.40
2022-12-22T02:28:43.926Z,34.37
2022-12-22T02:31:30.303Z,35.00
2022-12-22T02:34:15.898Z,34.33
2022-12-22T02:37:38.376Z,34.03
2022-12-22T02:40:53.232Z,32.07
2022-12-22T02:44:08.048Z,33.43
2022-12-22T02:47:03.490Z,33.90
2022-12-22T02:50:04.731Z,32.77
2022-12-22T02:52:53.676Z,34.40
2022-12-22T02:55:40.343Z,35.53
2022-12-22T02:58:26.252Z,32.93
2022-12-22T03:01:12.409Z,33.07
2022-12-22T03:03:58.226Z,33.97
2022-12-22T03:06:44.248Z,33.73
2022-12-22T03:09:30.160Z,35.07
2022-12-22T03:12:16.377Z,34.03
2022-12-22T03:15:02.210Z,33.17
2022-12-22T03:17:48.471Z,32.23
2022-12-22T03:20:34.091Z,32.07
2022-12-22T03:23:25.237Z,31.80
2022-12-22T03:25:55.291Z,31.50
2022-12-22T03:28:28.297Z,30.00
2022-12-22T03:30:59.889Z,30.10
2022-12-22T03:33:28.170Z,27.97
2022-12-22T03:35:56.011Z,28.23
2022-12-22T03:38:23.718Z,30.10
2022-12-22T03:40:50.943Z,29.93
2022-12-22T03:43:37.952Z,29.10
2022-12-22T03:46:17.793Z,30.23
2022-12-22T03:49:09.241Z,27.83
2022-12-22T03:51:43.345Z,30.17
2022-12-22T03:54:13.443Z,30.03
2022-12-22T03:56:41.318Z,29.07
2022-12-22T03:59:09.347Z,30.73
2022-12-22T04:01:42.633Z,30.67
2022-12-22T04:04:11.569Z,30.00
2022-12-22T04:06:39.130Z,30.87
2022-12-22T04:09:06.908Z,29.47
2022-12-22T04:11:52.883Z,31.07
2022-12-22T04:14:21.227Z,30.80
2022-12-22T04:16:49.069Z,29.80
2022-12-22T04:19:17.022Z,29.60
2022-12-22T04:21:44.503Z,30.80
2022-12-22T04:24:13.036Z,28.40
2022-12-22T04:26:40.519Z,32.87
2022-12-22T04:29:08.175Z,29.97
2022-12-22T04:31:35.426Z,29.00
2022-12-22T04:34:02.988Z,29.47
2022-12-22T04:36:30.308Z,29.43
2022-12-22T04:38:57.818Z,30.87
2022-12-22T04:41:24.995Z,29.23
2022-12-22T04:43:52.457Z,29.57
2022-12-22T04:46:19.833Z,29.63
2022-12-22T04:48:47.430Z,29.87
2022-12-22T04:51:14.683Z,29.50
2022-12-22T04:53:42.384Z,28.80
2022-12-22T04:56:09.652Z,29.47
2022-12-22T04:58:37.234Z,29.27
2022-12-22T05:01:13.245Z,31.00
2022-12-22T05:03:40.962Z,29.63
2022-12-22T05:06:08.296Z,28.03
2022-12-22T05:08:36.033Z,29.20
2022-12-22T05:11:03.303Z,27.17
2022-12-22T05:13:34.951Z,28.27
2022-12-22T05:16:06.848Z,28.40
2022-12-22T05:18:36.536Z,29.00
2022-12-22T05:21:11.749Z,28.43
2022-12-22T05:23:39.760Z,27.73
2022-12-22T05:26:07.405Z,29.93
2022-12-22T05:28:35.393Z,31.30
2022-12-22T05:31:07.790Z,30.17
2022-12-22T05:33:36.094Z,30.50
2022-12-22T05:36:03.581Z,29.97
2022-12-22T05:38:31.322Z,31.80
2022-12-22T05:41:03.961Z,28.50
2022-12-22T05:43:35.205Z,31.20
2022-12-22T05:46:04.451Z,29.67
2022-12-22T05:48:38.180Z,30.30
2022-12-22T05:51:08.422Z,30.30
2022-12-22T05:53:37.015Z,28.43
2022-12-22T05:56:04.654Z,29.97
2022-12-22T05:58:32.987Z,30.90
2022-12-22T06:01:01.303Z,31.90
2022-12-22T06:03:29.567Z,30.53
2022-12-22T06:05:58.010Z,31.17
2022-12-22T06:08:26.209Z,33.13
2022-12-22T06:10:58.941Z,33.07
2022-12-22T06:13:26.769Z,32.53
2022-12-22T06:15:54.151Z,33.27
2022-12-22T06:18:21.775Z,32.40
2022-12-22T06:20:52.422Z,34.67
2022-12-22T06:23:23.411Z,34.33
2022-12-22T06:25:55.834Z,33.93
2022-12-22T06:28:23.898Z,34.27
2022-12-22T06:30:51.440Z,33.57
2022-12-22T06:33:19.264Z,34.17
2022-12-22T06:35:50.753Z,32.20
2022-12-22T06:38:21.218Z,33.53
2022-12-22T06:40:48.391Z,32.30
2022-12-22T06:43:15.843Z,33.50
2022-12-22T06:45:43.810Z,31.40
2022-12-22T06:48:12.731Z,31.27
2022-12-22T06:50:40.443Z,32.60
2022-12-22T06:53:08.672Z,31.47
2022-12-22T06:55:36.744Z,31.87
2022-12-22T06:58:04.923Z,30.90
2022-12-22T07:00:32.753Z,30.43
2022-12-22T07:03:00.815Z,31.67
2022-12-22T07:05:30.594Z,30.70
2022-12-22T07:08:04.006Z,32.17
2022-12-22T07:10:54.021Z,29.37
2022-12-22T07:13:21.701Z,28.57
2022-12-22T07:15:57.575Z,30.43
2022-12-22T07:18:29.717Z,31.20
2022-12-22T07:20:56.906Z,31.13
2022-12-22T07:23:24.859Z,31.97
2022-12-22T07:25:52.261Z,32.73
2022-12-22T07:28:21.346Z,29.97
2022-12-22T07:30:50.286Z,29.30
2022-12-22T07:33:17.935Z,28.53
2022-12-22T07:35:45.772Z,30.17
2022-12-22T07:38:13.885Z,29.90
2022-12-22T07:40:42.393Z,30.57
2022-12-22T07:43:10.944Z,31.07
2022-12-22T07:45:38.760Z,31.93
2022-12-22T07:48:26.339Z,29.60
2022-12-22T07:50:55.258Z,31.17
2022-12-22T07:53:22.867Z,29.53
2022-12-22T07:55:50.062Z,30.13
2022-12-22T07:58:17.527Z,30.70
2022-12-22T08:00:44.705Z,28.23
2022-12-22T08:03:12.292Z,27.53
2022-12-22T08:05:39.703Z,27.17
2022-12-22T08:08:07.441Z,27.27
2022-12-22T08:10:34.689Z,27.03
2022-12-22T08:13:02.283Z,28.93
2022-12-22T08:15:29.628Z,26.43
2022-12-22T08:17:57.287Z,25.27
2022-12-22T08:20:24.986Z,23.97
2022-12-22T08:22:52.431Z,24.00
2022-12-22T08:25:19.700Z,23.87
2022-12-22T08:27:53.227Z,23.40
2022-12-22T08:30:20.796Z,23.33
2022-12-22T08:32:50.974Z,23.07
2022-12-22T08:35:18.937Z,22.57
2022-12-22T08:37:47.929Z,22.87
2022-12-22T08:40:25.151Z,19.87
2022-12-22T08:42:59.322Z,19.70
2022-12-22T08:45:27.006Z,20.67
2022-12-22T08:47:54.938Z,19.23
2022-12-22T08:50:22.819Z,20.00
2022-12-22T08:52:50.769Z,20.40
2022-12-22T08:55:18.587Z,18.50
2022-12-22T08:57:55.828Z,18.93
2022-12-22T09:00:23.852Z,18.37
2022-12-22T09:02:52.160Z,17.90
2022-12-22T09:05:20.046Z,16.97
2022-12-22T09:07:48.595Z,18.20
2022-12-22T09:10:16.371Z,15.97
2022-12-22T09:12:43.950Z,15.07
2022-12-22T09:15:11.288Z,16.17
2022-12-22T09:17:38.748Z,16.00
2022-12-22T09:20:06.708Z,16.10
2022-12-22T09:22:34.273Z,15.30
2022-12-22T09:25:01.429Z,17.27
2022-12-22T09:27:30.798Z,17.13
2022-12-22T09:29:58.455Z,17.03
2022-12-22T09:32:27.371Z,19.30
2022-12-22T09:34:54.655Z,19.83
2022-12-22T09:37:22.090Z,18.90
2022-12-22T09:39:49.220Z,18.13
2022-12-22T09:42:20.369Z,19.03
2022-12-22T09:44:50.402Z,18.70
2022-12-22T09:47:36.148Z,19.13
2022-12-22T09:50:05.859Z,17.73
2022-12-22T09:52:36.580Z,18.40
2022-12-22T09:55:26.740Z,18.63
2022-12-22T09:57:54.574Z,20.33
2022-12-22T10:00:28.425Z,17.17
2022-12-22T10:03:31.535Z,16.80
2022-12-22T10:06:27.294Z,16.33
2022-12-22T10:08:54.893Z,18.37
2022-12-22T10:11:22.075Z,17.23
2022-12-22T10:13:49.527Z,15.70
2022-12-22T10:16:17.730Z,17.57
2022-12-22T10:19:11.842Z,16.23
2022-12-22T10:21:46.436Z,14.90
2022-12-22T10:24:29.071Z,14.97
2022-12-22T10:27:00.660Z,16.00
2022-12-22T10:29:29.580Z,14.80
2022-12-22T10:32:11.874Z,15.17
2022-12-22T10:35:02.884Z,15.87
2022-12-22T10:37:38.766Z,14.27
2022-12-22T10:40:21.338Z,14.30
2022-12-22T10:42:55.209Z,15.07
2022-12-22T10:45:26.697Z,16.60
2022-12-22T10:47:56.138Z,15.43
2022-12-22T10:50:24.185Z,17.13
2022-12-22T10:52:58.759Z,16.77
2022-12-22T10:55:29.471Z,16.80
2022-12-22T10:58:21.923Z,16.50
2022-12-22T11:01:10.518Z,17.00
2022-12-22T11:03:38.117Z,16.57
2022-12-22T11:06:13.138Z,17.97
2022-12-22T11:08:42.691Z,16.33
2022-12-22T11:11:32.725Z,15.97
2022-12-22T11:14:14.386Z,18.50
2022-12-22T11:16:55.111Z,17.57
2022-12-22T11:19:56.901Z,17.70
2022-12-22T11:22:49.003Z,19.10
2022-12-22T11:25:22.389Z,21.97
2022-12-22T11:28:06.059Z,22.17
2022-12-22T11:30:47.090Z,21.73
2022-12-22T11:33:38.829Z,21.27
2022-12-22T11:36:14.224Z,20.93
2022-12-22T11:39:01.029Z,20.80
2022-12-22T11:42:05.427Z,21.90
2022-12-22T11:44:47.417Z,20.50
2022-12-22T11:47:43.289Z,21.00
2022-12-22T11:50:59.994Z,21.57
2022-12-22T11:53:21.572Z,26.30
2022-12-22T11:55:59.512Z,24.67
2022-12-22T11:58:47.031Z,24.80
2022-12-22T12:01:33.447Z,23.50
2022-12-22T12:04:26.456Z,25.73
2022-12-22T12:07:12.382Z,25.70
2022-12-22T12:09:45.079Z,25.07
2022-12-22T12:12:43.002Z,25.20
2022-12-22T12:15:27.432Z,25.80
2022-12-22T12:18:13.509Z,27.10
2022-12-22T12:20:58.454Z,28.00
2022-12-22T12:23:54.845Z,26.97
2022-12-22T12:26:41.548Z,28.93
2022-12-22T12:29:24.324Z,29.80
2022-12-22T12:32:03.091Z,30.33
2022-12-22T12:34:35.175Z,30.67
2022-12-22T12:37:07.143Z,30.30
2022-12-22T12:39:59.458Z,29.97
2022-12-22T12:42:39.508Z,30.00
2022-12-22T12:45:32.021Z,29.57
2022-12-22T12:48:23.743Z,30.17
2022-12-22T12:50:52.113Z,31.03
2022-12-22T12:53:27.877Z,31.67
2022-12-22T12:56:05.309Z,32.43
2022-12-22T12:58:35.937Z,34.80
2022-12-22T13:01:33.970Z,32.17
2022-12-22T13:04:04.789Z,32.33
2022-12-22T13:06:51.322Z,32.40
2022-12-22T13:12:40.425Z,36.70
2022-12-22T13:15:30.369Z,34.37
2022-12-22T13:17:59.289Z,35.13
2022-12-22T13:20:35.624Z,34.43
2022-12-22T13:23:14.118Z,34.67
2022-12-22T13:26:00.311Z,34.73
2022-12-22T13:28:29.527Z,33.57
2022-12-22T13:31:05.156Z,36.93
2022-12-22T13:33:39.223Z,35.23
2022-12-22T13:36:15.237Z,37.27
2022-12-22T13:38:43.239Z,33.67
2022-12-22T13:41:27.181Z,36.13
2022-12-22T13:44:01.573Z,36.73
2022-12-22T13:46:30.080Z,35.10
2022-12-22T13:49:00.605Z,35.87
2022-12-22T13:51:32.666Z,38.13
2022-12-22T13:54:09.127Z,35.80
2022-12-22T13:56:46.191Z,38.57
2022-12-22T13:59:35.558Z,36.17
2022-12-22T14:02:09.172Z,37.07
2022-12-22T14:04:42.206Z,42.03
2022-12-22T14:07:18.512Z,37.23
2022-12-22T14:09:54.979Z,38.43
2022-12-22T14:12:46.253Z,39.97
2022-12-22T14:15:20.231Z,38.50
2022-12-22T14:17:52.958Z,43.30
2022-12-22T14:20:37.272Z,38.73
2022-12-22T14:23:26.753Z,38.60
2022-12-22T14:25:56.524Z,37.73
2022-12-22T14:28:28.252Z,40.07
2022-12-22T14:30:58.975Z,39.77
2022-12-22T14:33:27.405Z,39.60
2022-12-22T14:36:40.591Z,39.77
2022-12-22T14:39:22.685Z,38.40
2022-12-22T14:41:54.181Z,42.33
2022-12-22T14:44:28.164Z,41.27
2022-12-22T14:47:08.519Z,40.37
2022-12-22T14:49:43.494Z,39.23
2022-12-22T14:52:37.840Z,40.13
2022-12-22T14:55:20.965Z,41.87
2022-12-22T14:57:54.649Z,42.67
2022-12-22T15:00:22.674Z,44.43
2022-12-22T15:02:53.755Z,46.37
2022-12-22T15:05:38.159Z,45.03
2022-12-22T15:08:09.631Z,44.97
2022-12-22T15:10:42.164Z,42.17
2022-12-22T15:13:21.812Z,47.00
2022-12-22T15:15:51.794Z,46.63
2022-12-22T15:18:25.640Z,43.00
2022-12-22T15:20:55.092Z,45.57
2022-12-22T15:23:23.143Z,49.00
2022-12-22T15:25:50.868Z,44.37
2022-12-22T15:28:18.660Z,46.47
2022-12-22T15:30:46.645Z,48.50
2022-12-22T15:33:16.308Z,45.37
2022-12-22T15:35:44.878Z,45.37
2022-12-22T15:38:19.641Z,48.20
2022-12-22T15:40:48.127Z,45.13
2022-12-22T15:43:37.211Z,55.43
2022-12-22T15:46:06.430Z,48.87
2022-12-22T15:48:39.762Z,48.17
2022-12-22T15:51:15.701Z,51.77
2022-12-22T15:53:43.507Z,58.93
2022-12-22T15:56:17.792Z,50.27
2022-12-22T15:58:46.836Z,46.07
2022-12-22T16:01:14.593Z,46.73
2022-12-22T16:03:42.370Z,45.33
2022-12-22T16:06:19.902Z,44.33
2022-12-22T16:08:51.324Z,47.03
2022-12-22T16:11:19.531Z,48.70
2022-12-22T16:13:49.576Z,44.93
2022-12-22T16:16:17.831Z,45.63
2022-12-22T16:18:45.788Z,45.43
2022-12-22T16:21:19.837Z,49.20
2022-12-22T16:23:49.136Z,45.87
2022-12-22T16:26:19.662Z,45.60
2022-12-22T16:28:48.122Z,46.23
2022-12-22T16:31:21.951Z,48.50
2022-12-22T16:33:50.682Z,47.97
2022-12-22T16:36:18.905Z,44.10
2022-12-22T16:38:47.846Z,46.50
2022-12-22T16:41:23.746Z,45.93
2022-12-22T16:43:53.750Z,47.47
2022-12-22T16:46:23.133Z,46.47
2022-12-22T16:49:00.050Z,45.17
2022-12-22T16:51:34.872Z,43.50
2022-12-22T16:54:03.028Z,42.67
2022-12-22T16:56:31.855Z,46.50
2022-12-22T16:59:01.130Z,44.43
2022-12-22T17:01:32.333Z,44.80
2022-12-22T17:04:30.658Z,44.87
2022-12-22T17:07:00.842Z,44.40
2022-12-22T17:09:46.840Z,43.50
2022-12-22T17:12:30.212Z,48.97
2022-12-22T17:14:59.833Z,45.60
2022-12-22T17:17:34.135Z,45.40
2022-12-22T17:20:06.858Z,49.47
2022-12-22T17:22:35.970Z,48.27
2022-12-22T17:25:08.675Z,47.67
2022-12-22T17:27:36.895Z,44.43
2022-12-22T17:30:18.473Z,43.63
2022-12-22T17:32:48.238Z,46.10
2022-12-22T17:35:19.598Z,44.93
2022-12-22T17:37:50.534Z,45.80
2022-12-22T17:40:27.974Z,44.63
2022-12-22T17:42:59.278Z,45.20
2022-12-22T17:45:29.909Z,44.23
2022-12-22T17:47:58.968Z,45.83
2022-12-22T17:50:28.925Z,43.57
2022-12-22T17:52:57.527Z,42.73
2022-12-22T17:56:05.850Z,42.93
2022-12-22T17:58:17.650Z,43.10
2022-12-22T18:00:47.120Z,42.33
2022-12-22T18:03:16.773Z,42.13
2022-12-22T18:05:48.971Z,46.43
2022-12-22T18:08:20.796Z,43.33
2022-12-22T18:10:49.823Z,45.23
2022-12-22T18:13:23.067Z,44.93
2022-12-22T18:15:53.506Z,44.07
2022-12-22T18:18:22.336Z,42.07
2022-12-22T18:21:06.259Z,42.30
2022-12-22T18:23:38.489Z,41.90
2022-12-22T18:26:11.824Z,43.17
2022-12-22T18:28:41.003Z,46.53
2022-12-22T18:31:10.739Z,43.33
2022-12-22T18:33:39.480Z,42.80
2022-12-22T18:36:18.890Z,47.10
2022-12-22T18:38:48.679Z,42.93
2022-12-22T18:41:22.644Z,44.47
2022-12-22T18:43:50.749Z,41.23
2022-12-22T18:46:20.003Z,41.70
2022-12-22T18:48:49.023Z,42.07
2022-12-22T18:51:20.572Z,41.83
2022-12-22T18:53:51.728Z,44.37
2022-12-22T18:56:20.966Z,40.13
2022-12-22T18:58:48.959Z,45.27
2022-12-22T19:01:27.670Z,40.23
2022-12-22T19:03:56.793Z,40.67
2022-12-22T19:06:25.821Z,39.63
2022-12-22T19:08:53.517Z,38.20
2022-12-22T19:11:26.958Z,37.90
2022-12-22T19:13:54.587Z,41.50
2022-12-22T19:16:26.459Z,38.37
2022-12-22T19:18:54.644Z,40.43
2022-12-22T19:21:23.484Z,37.27
2022-12-22T19:23:51.288Z,37.83
2022-12-22T19:26:26.573Z,39.90
2022-12-22T19:29:00.356Z,37.60
2022-12-22T19:31:35.281Z,37.40
2022-12-22T19:34:10.581Z,39.53
2022-12-22T19:36:38.485Z,35.47
2022-12-22T19:39:06.316Z,38.80
2022-12-22T19:41:37.915Z,34.13
2022-12-22T19:44:06.290Z,35.63
2022-12-22T19:46:35.782Z,36.00
2022-12-22T19:49:04.528Z,36.73
2022-12-22T19:51:32.828Z,38.87
2022-12-22T19:54:00.852Z,36.53
2022-12-22T19:56:32.509Z,36.20
2022-12-22T19:59:01.753Z,34.80
2022-12-22T20:01:30.437Z,33.20
2022-12-22T20:03:58.992Z,35.17
2022-12-22T20:06:27.536Z,31.23
2022-12-22T20:09:02.268Z,32.23
2022-12-22T20:11:31.092Z,29.13
2022-12-22T20:14:00.115Z,29.93
2022-12-22T20:16:28.480Z,28.83
2022-12-22T20:18:56.287Z,30.07
2022-12-22T20:21:30.211Z,28.93
2022-12-22T20:23:59.927Z,25.47
2022-12-22T20:26:28.289Z,26.20
2022-12-22T20:28:56.577Z,28.73
2022-12-22T20:31:26.244Z,29.37
2022-12-22T20:33:55.613Z,28.23
2022-12-22T20:36:32.963Z,27.83
2022-12-22T20:39:02.398Z,27.93
2022-12-22T20:41:30.755Z,27.00
2022-12-22T20:43:59.321Z,32.67
2022-12-22T20:46:29.918Z,34.13
2022-12-22T20:53:51.332Z,31.37
2022-12-22T20:56:28.640Z,35.57
2022-12-22T20:58:58.547Z,35.53
2022-12-22T21:01:28.771Z,34.63
2022-12-22T21:03:56.699Z,31.60
2022-12-22T21:06:31.707Z,35.27
2022-12-22T21:09:01.023Z,33.17
2022-12-22T21:11:31.607Z,35.07
2022-12-22T21:14:00.313Z,35.30
2022-12-22T21:16:32.684Z,36.30
2022-12-22T21:19:02.158Z,35.67
2022-12-22T21:21:31.822Z,35.20
2022-12-22T21:24:00.668Z,35.17
2022-12-22T21:26:41.029Z,38.90
2022-12-22T21:29:19.077Z,37.93
2022-12-22T21:31:47.786Z,36.20
2022-12-22T21:34:16.828Z,31.47
2022-12-22T21:36:49.172Z,31.57
2022-12-22T21:39:26.581Z,39.00
2022-12-22T21:42:00.905Z,34.70
2022-12-22T21:44:33.360Z,34.63
2022-12-22T21:47:03.596Z,33.53
2022-12-22T21:49:34.350Z,31.70
2022-12-22T21:52:03.043Z,33.77
2022-12-22T21:54:32.566Z,33.60
2022-12-22T21:57:02.257Z,33.53
2022-12-22T21:59:31.403Z,46.40
2022-12-22T22:02:01.200Z,42.27
2022-12-22T22:04:29.760Z,32.40
2022-12-22T22:06:58.617Z,41.57
2022-12-22T22:09:26.943Z,42.77
2022-12-22T22:12:15.893Z,38.43
2022-12-22T22:14:44.215Z,36.50
2022-12-22T22:17:13.436Z,42.20
2022-12-22T22:19:41.527Z,42.60
2022-12-22T22:22:09.556Z,33.37
2022-12-22T22:24:38.484Z,31.20
2022-12-22T22:27:07.757Z,32.90
2022-12-22T22:29:35.604Z,30.77
2022-12-22T22:32:04.162Z,30.60
2022-12-22T22:34:32.760Z,30.27
2022-12-22T22:37:01.270Z,29.37
2022-12-22T22:39:29.345Z,30.23
2022-12-22T22:41:57.514Z,33.23
2022-12-22T22:44:25.357Z,45.80
2022-12-22T22:46:53.555Z,35.27
2022-12-22T22:49:28.097Z,30.67
2022-12-22T22:51:56.945Z,32.53
2022-12-22T22:54:24.855Z,28.43
2022-12-22T22:56:53.772Z,27.53
2022-12-22T22:59:21.550Z,28.57
2022-12-22T23:01:49.441Z,27.93
2022-12-22T23:04:17.485Z,30.57
2022-12-22T23:06:45.641Z,31.40
2022-12-22T23:09:13.848Z,27.23
2022-12-22T23:11:41.821Z,27.13
2022-12-22T23:14:09.671Z,25.63
2022-12-22T23:16:38.706Z,26.63
2022-12-22T23:19:07.052Z,25.70
2022-12-22T23:21:35.420Z,28.13
2022-12-22T23:24:03.091Z,30.47
2022-12-22T23:26:31.498Z,27.70
2022-12-22T23:29:03.256Z,28.20
2022-12-22T23:31:33.086Z,27.60
2022-12-22T23:34:00.979Z,28.20
2022-12-22T23:36:28.794Z,28.23
2022-12-22T23:38:57.037Z,26.70
2022-12-22T23:41:25.157Z,28.97
2022-12-22T23:43:54.356Z,31.20
2022-12-22T23:46:23.048Z,29.20
2022-12-22T23:48:55.701Z,31.10
2022-12-22T23:51:26.935Z,30.20
2022-12-22T23:53:56.207Z,31.27
2022-12-22T23:56:24.536Z,32.93
2022-12-22T23:58:54.952Z,39.73
